createdAt,value
2022-12-07T00:01:39.272Z,101851.22
2022-12-07T00:04:07.286Z,101868.38
2022-12-07T00:06:35.245Z,101871.81
2022-12-07T00:09:01.939Z,101870.13
2022-12-07T00:11:28.480Z,101870.13
2022-12-07T00:13:57.577Z,101869.28
2022-12-07T00:16:26.876Z,101865.88
2022-12-07T00:18:53.449Z,101859.03
2022-12-07T00:21:22.825Z,101859.03
2022-12-07T00:23:51.068Z,101853.94
2022-12-07T00:26:20.696Z,101847.94
2022-12-07T00:28:52.266Z,101841.91
2022-12-07T00:31:21.662Z,101846.19
2022-12-07T00:33:48.955Z,101843.59
2022-12-07T00:36:23.085Z,101848.75
2022-12-07T00:38:53.164Z,101841.03
2022-12-07T00:41:22.133Z,101839.31
2022-12-07T00:43:50.040Z,101831.59
2022-12-07T00:46:17.916Z,101839.38
2022-12-07T00:48:44.758Z,101835.94
2022-12-07T00:51:13.057Z,101841.09
2022-12-07T00:53:41.881Z,101832.50
2022-12-07T00:56:11.947Z,101836.84
2022-12-07T00:58:38.333Z,101836.84
2022-12-07T01:01:07.090Z,101829.16
2022-12-07T01:03:33.962Z,101830.00
2022-12-07T01:06:00.687Z,101830.84
2022-12-07T01:08:28.760Z,101825.72
2022-12-07T01:11:07.712Z,101822.25
2022-12-07T01:13:35.543Z,101828.28
2022-12-07T01:16:03.819Z,101826.56
2022-12-07T01:18:31.910Z,101830.84
2022-12-07T01:21:00.578Z,101823.13
2022-12-07T01:23:27.162Z,101836.03
2022-12-07T01:26:01.232Z,101830.88
2022-12-07T01:28:28.154Z,101829.22
2022-12-07T01:30:58.625Z,101837.78
2022-12-07T01:33:25.015Z,101832.66
2022-12-07T01:35:51.456Z,101836.94
2022-12-07T01:38:17.857Z,101837.81
2022-12-07T01:40:44.202Z,101841.22
2022-12-07T01:43:20.174Z,101838.69
2022-12-07T01:45:46.740Z,101845.56
2022-12-07T01:48:18.005Z,101842.97
2022-12-07T01:50:48.055Z,101847.28
2022-12-07T01:53:14.921Z,101842.16
2022-12-07T01:55:45.121Z,101841.28
2022-12-07T01:58:13.238Z,101845.59
2022-12-07T02:00:40.329Z,101843.91
2022-12-07T02:03:19.851Z,101845.59
2022-12-07T02:05:47.481Z,101848.13
2022-12-07T02:08:15.074Z,101836.13
2022-12-07T02:10:41.774Z,101839.56
2022-12-07T02:13:13.862Z,101839.56
2022-12-07T02:15:52.369Z,101834.41
2022-12-07T02:18:43.585Z,101832.69
2022-12-07T02:21:14.066Z,101827.56
2022-12-07T02:23:47.544Z,101831.00
2022-12-07T02:26:25.926Z,101826.69
2022-12-07T02:28:52.248Z,101824.13
2022-12-07T02:31:22.764Z,101835.25
2022-12-07T02:33:58.278Z,101819.00
2022-12-07T02:36:32.202Z,101817.25
2022-12-07T02:39:15.967Z,101815.56
2022-12-07T02:41:50.496Z,101815.56
2022-12-07T02:44:21.069Z,101815.56
2022-12-07T02:46:57.274Z,101815.56
2022-12-07T02:49:25.569Z,101809.56
2022-12-07T02:51:53.817Z,101810.38
2022-12-07T02:54:21.695Z,101811.25
2022-12-07T02:56:58.114Z,101817.28
2022-12-07T02:59:38.389Z,101815.53
2022-12-07T03:02:31.328Z,101820.66
2022-12-07T03:05:19.344Z,101826.66
2022-12-07T03:08:19.924Z,101815.53
2022-12-07T03:11:01.409Z,101811.22
2022-12-07T03:13:49.770Z,101814.66
2022-12-07T03:16:17.559Z,101812.94
2022-12-07T03:19:10.383Z,101810.38
2022-12-07T03:21:41.624Z,101817.25
2022-12-07T03:24:12.950Z,101812.13
2022-12-07T03:26:45.475Z,101814.69
2022-12-07T03:29:26.343Z,101805.28
2022-12-07T03:32:04.252Z,101810.44
2022-12-07T03:34:39.056Z,101813.84
2022-12-07T03:37:11.708Z,101811.31
2022-12-07T03:39:51.274Z,101808.75
2022-12-07T03:42:17.738Z,101809.63
2022-12-07T03:44:44.673Z,101809.63
2022-12-07T03:47:36.808Z,101795.00
2022-12-07T03:50:25.500Z,101799.28
2022-12-07T03:53:01.492Z,101800.13
2022-12-07T03:55:32.171Z,101802.72
2022-12-07T03:58:07.496Z,101801.03
2022-12-07T04:00:34.853Z,101807.03
2022-12-07T04:03:01.638Z,101794.16
2022-12-07T04:05:29.150Z,101786.44
2022-12-07T04:07:55.867Z,101793.28
2022-12-07T04:10:22.626Z,101793.25
2022-12-07T04:12:49.259Z,101789.84
2022-12-07T04:15:15.909Z,101787.28
2022-12-07T04:17:42.380Z,101787.28
2022-12-07T04:20:09.729Z,101783.84
2022-12-07T04:22:36.369Z,101784.72
2022-12-07T04:25:03.369Z,101783.03
2022-12-07T04:27:29.949Z,101786.47
2022-12-07T04:29:56.793Z,101783.94
2022-12-07T04:32:24.641Z,101788.22
2022-12-07T04:34:55.650Z,101794.22
2022-12-07T04:37:23.658Z,101786.50
2022-12-07T04:39:50.366Z,101782.19
2022-12-07T04:42:17.101Z,101791.63
2022-12-07T04:44:43.757Z,101786.44
2022-12-07T04:47:10.735Z,101789.03
2022-12-07T04:49:37.558Z,101788.19
2022-12-07T04:52:04.387Z,101778.75
2022-12-07T04:54:31.094Z,101783.03
2022-12-07T04:56:57.864Z,101783.91
2022-12-07T04:59:24.471Z,101774.50
2022-12-07T05:01:51.137Z,101771.06
2022-12-07T05:04:18.940Z,101773.66
2022-12-07T05:06:45.779Z,101766.81
2022-12-07T05:09:12.912Z,101761.66
2022-12-07T05:11:39.674Z,101765.97
2022-12-07T05:14:15.988Z,101765.97
2022-12-07T05:16:43.855Z,101765.97
2022-12-07T05:19:11.420Z,101770.25
2022-12-07T05:21:38.760Z,101769.41
2022-12-07T05:24:06.132Z,101769.41
2022-12-07T05:26:33.085Z,101772.00
2022-12-07T05:28:59.939Z,101766.88
2022-12-07T05:31:27.987Z,101772.00
2022-12-07T05:33:54.800Z,101766.88
2022-12-07T05:36:21.728Z,101769.44
2022-12-07T05:38:48.396Z,101770.28
2022-12-07T05:41:36.807Z,101769.44
2022-12-07T05:44:04.676Z,101769.44
2022-12-07T05:46:32.193Z,101777.13
2022-12-07T05:48:59.015Z,101772.00
2022-12-07T05:51:25.817Z,101777.13
2022-12-07T05:53:52.383Z,101776.28
2022-12-07T05:56:18.842Z,101772.84
2022-12-07T05:59:04.018Z,101774.56
2022-12-07T06:01:30.627Z,101778.84
2022-12-07T06:03:57.261Z,101773.72
2022-12-07T06:06:24.130Z,101772.88
2022-12-07T06:08:50.832Z,101774.56
2022-12-07T06:11:35.914Z,101772.88
2022-12-07T06:14:02.573Z,101774.56
2022-12-07T06:16:29.378Z,101775.41
2022-12-07T06:18:56.235Z,101776.25
2022-12-07T06:21:22.897Z,101771.13
2022-12-07T06:23:49.529Z,101779.69
2022-12-07T06:26:16.200Z,101770.28
2022-12-07T06:28:43.005Z,101766.84
2022-12-07T06:31:13.926Z,101778.84
2022-12-07T06:33:41.193Z,101772.84
2022-12-07T06:36:08.217Z,101778.84
2022-12-07T06:38:34.737Z,101780.53
2022-12-07T06:41:01.278Z,101776.25
2022-12-07T06:43:28.392Z,101774.53
2022-12-07T06:45:55.043Z,101773.72
2022-12-07T06:48:21.930Z,101772.00
2022-12-07T06:50:54.412Z,101772.00
2022-12-07T06:53:21.854Z,101774.59
2022-12-07T06:55:48.494Z,101769.47
2022-12-07T06:58:15.093Z,101769.47
2022-12-07T07:00:41.771Z,101776.31
2022-12-07T07:03:08.287Z,101777.19
2022-12-07T07:05:34.810Z,101776.34
2022-12-07T07:10:47.917Z,101778.03
2022-12-07T07:13:14.573Z,101774.59
2022-12-07T07:15:41.327Z,101783.19
2022-12-07T07:18:08.222Z,101779.72
2022-12-07T07:20:35.267Z,101784.88
2022-12-07T07:23:02.154Z,101775.47
2022-12-07T07:25:28.769Z,101783.16
2022-12-07T07:27:55.580Z,101772.03
2022-12-07T07:30:22.196Z,101774.63
2022-12-07T07:32:48.744Z,101775.50
2022-12-07T07:35:15.483Z,101772.91
2022-12-07T07:37:42.379Z,101776.34
2022-12-07T07:40:10.164Z,101784.91
2022-12-07T07:42:37.143Z,101778.91
2022-12-07T07:45:04.022Z,101773.78
2022-12-07T07:47:30.688Z,101785.75
2022-12-07T07:49:58.176Z,101784.91
2022-12-07T07:52:24.992Z,101788.31
2022-12-07T07:54:51.643Z,101784.06
2022-12-07T07:57:18.900Z,101783.19
2022-12-07T07:59:45.447Z,101786.63
2022-12-07T08:02:17.337Z,101782.34
2022-12-07T08:04:44.593Z,101790.06
2022-12-07T08:07:11.988Z,101788.34
2022-12-07T08:09:38.833Z,101794.34
2022-12-07T08:12:05.605Z,101799.44
2022-12-07T08:14:32.719Z,101798.56
2022-12-07T08:16:59.273Z,101801.16
2022-12-07T08:19:25.935Z,101797.69
2022-12-07T08:21:52.894Z,101802.81
2022-12-07T08:24:19.526Z,101808.81
2022-12-07T08:26:46.024Z,101800.25
2022-12-07T08:29:12.446Z,101802.78
2022-12-07T08:31:39.569Z,101798.50
2022-12-07T08:34:06.143Z,101798.50
2022-12-07T08:36:32.686Z,101796.75
2022-12-07T08:39:30.442Z,101801.03
2022-12-07T08:41:45.889Z,101798.47
2022-12-07T08:44:12.514Z,101794.13
2022-12-07T08:46:54.696Z,101810.41
2022-12-07T08:49:27.971Z,101796.69
2022-12-07T08:51:55.952Z,101794.97
2022-12-07T08:54:23.158Z,101790.66
2022-12-07T08:56:58.443Z,101783.84
2022-12-07T08:59:26.366Z,101790.66
2022-12-07T09:01:53.009Z,101800.13
2022-12-07T09:04:19.585Z,101789.81
2022-12-07T09:06:46.472Z,101791.53
2022-12-07T09:09:15.274Z,101784.66
2022-12-07T09:11:42.341Z,101787.22
2022-12-07T09:14:09.385Z,101790.63
2022-12-07T09:16:36.065Z,101791.41
2022-12-07T09:19:02.794Z,101789.63
2022-12-07T09:21:29.366Z,101798.13
2022-12-07T09:23:55.867Z,101797.16
2022-12-07T09:26:22.744Z,101799.72
2022-12-07T09:28:49.322Z,101800.56
2022-12-07T09:31:25.281Z,101800.66
2022-12-07T09:34:10.705Z,101803.25
2022-12-07T09:36:37.325Z,101800.66
2022-12-07T09:39:05.714Z,101803.19
2022-12-07T09:41:33.551Z,101804.84
2022-12-07T09:44:06.103Z,101788.50
2022-12-07T09:49:19.704Z,101793.47
2022-12-07T09:51:47.386Z,101790.91
2022-12-07T09:54:16.039Z,101790.06
2022-12-07T09:56:43.310Z,101787.50
2022-12-07T09:59:17.447Z,101789.22
2022-12-07T10:01:45.312Z,101789.25
2022-12-07T10:04:11.894Z,101785.88
2022-12-07T10:06:38.405Z,101775.63
2022-12-07T10:09:11.280Z,101774.75
2022-12-07T10:12:10.644Z,101772.06
2022-12-07T10:17:41.866Z,101768.19
2022-12-07T10:20:16.408Z,101767.31
2022-12-07T10:23:01.295Z,101766.50
2022-12-07T10:25:36.008Z,101767.47
2022-12-07T10:28:10.942Z,101766.69
2022-12-07T10:30:57.829Z,101763.34
2022-12-07T10:33:54.545Z,101758.25
2022-12-07T10:36:28.513Z,101758.25
2022-12-07T10:39:02.510Z,101749.59
2022-12-07T10:41:29.084Z,101751.22
2022-12-07T10:43:57.892Z,101753.63
2022-12-07T10:46:38.452Z,101745.81
2022-12-07T10:49:31.865Z,101750.88
2022-12-07T10:52:27.839Z,101738.81
2022-12-07T10:55:23.183Z,101745.69
2022-12-07T10:57:58.448Z,101735.31
2022-12-07T11:00:26.642Z,101730.88
2022-12-07T11:03:20.557Z,101731.63
2022-12-07T11:06:11.407Z,101738.31
2022-12-07T11:08:48.456Z,101733.00
2022-12-07T11:11:26.255Z,101732.13
2022-12-07T11:14:14.158Z,101721.88
2022-12-07T11:17:14.043Z,101719.41
2022-12-07T11:20:08.354Z,101718.72
2022-12-07T11:22:52.754Z,101723.16
2022-12-07T11:25:28.446Z,101722.41
2022-12-07T11:28:10.540Z,101717.28
2022-12-07T11:30:55.529Z,101703.53
2022-12-07T11:33:21.939Z,101706.94
2022-12-07T11:36:03.198Z,101702.56
2022-12-07T11:38:43.201Z,101701.66
2022-12-07T11:41:16.934Z,101702.50
2022-12-07T11:44:05.569Z,101692.06
2022-12-07T11:46:52.487Z,101691.16
2022-12-07T11:49:22.516Z,101694.53
2022-12-07T11:51:54.225Z,101690.97
2022-12-07T11:54:36.352Z,101690.06
2022-12-07T11:57:18.639Z,101683.16
2022-12-07T11:59:59.676Z,101683.97
2022-12-07T12:02:41.718Z,101684.81
2022-12-07T12:05:15.607Z,101678.00
2022-12-07T12:10:43.154Z,101668.50
2022-12-07T12:16:53.582Z,101656.38
2022-12-07T12:19:31.928Z,101657.13
2022-12-07T12:22:07.500Z,101663.94
2022-12-07T12:24:38.452Z,101659.56
2022-12-07T12:27:16.045Z,101656.06
2022-12-07T12:29:44.757Z,101659.47
2022-12-07T12:32:24.211Z,101649.84
2022-12-07T12:34:59.462Z,101639.31
2022-12-07T12:37:34.945Z,101642.53
2022-12-07T12:40:24.674Z,101647.53
2022-12-07T12:42:57.887Z,101642.34
2022-12-07T12:45:25.835Z,101645.69
2022-12-07T12:47:59.072Z,101646.66
2022-12-07T12:50:30.289Z,101642.50
2022-12-07T12:53:01.740Z,101641.81
2022-12-07T12:55:43.197Z,101638.59
2022-12-07T12:58:19.150Z,101631.94
2022-12-07T13:01:09.938Z,101632.94
2022-12-07T13:03:36.494Z,101629.53
2022-12-07T13:06:20.855Z,101632.13
2022-12-07T13:08:47.827Z,101632.28
2022-12-07T13:11:31.065Z,101625.56
2022-12-07T13:14:36.308Z,101625.72
2022-12-07T13:17:03.314Z,101619.81
2022-12-07T13:19:56.502Z,101607.78
2022-12-07T13:22:41.607Z,101607.84
2022-12-07T13:25:13.961Z,101609.53
2022-12-07T13:27:43.523Z,101596.69
2022-12-07T13:30:16.966Z,101605.34
2022-12-07T13:32:43.648Z,101602.81
2022-12-07T13:35:32.511Z,101593.34
2022-12-07T13:37:58.988Z,101591.69
2022-12-07T13:40:25.578Z,101592.53
2022-12-07T13:43:18.614Z,101589.88
2022-12-07T13:45:50.842Z,101583.88
2022-12-07T13:48:29.322Z,101588.13
2022-12-07T13:50:57.803Z,101575.31
2022-12-07T13:53:24.788Z,101578.72
2022-12-07T13:55:54.497Z,101583.03
2022-12-07T13:58:23.344Z,101577.88
2022-12-07T14:00:50.246Z,101573.53
2022-12-07T14:03:16.768Z,101571.75
2022-12-07T14:05:45.506Z,101564.81
2022-12-07T14:08:11.993Z,101565.63
2022-12-07T14:10:42.474Z,101563.81
2022-12-07T14:13:30.991Z,101564.56
2022-12-07T14:15:59.125Z,101569.72
2022-12-07T14:18:45.854Z,101562.78
2022-12-07T14:21:16.653Z,101561.06
2022-12-07T14:23:43.315Z,101546.50
2022-12-07T14:26:15.617Z,101550.81
2022-12-07T14:28:43.756Z,101551.69
2022-12-07T14:31:19.023Z,101544.84
2022-12-07T14:33:51.035Z,101549.19
2022-12-07T14:36:17.525Z,101544.03
2022-12-07T14:38:43.874Z,101542.34
2022-12-07T14:41:41.898Z,101537.22
2022-12-07T14:44:35.548Z,101534.69
2022-12-07T14:49:48.852Z,101529.56
2022-12-07T14:55:25.341Z,101541.69
2022-12-07T14:57:52.313Z,101538.28
2022-12-07T15:00:20.798Z,101545.13
2022-12-07T15:02:48.328Z,101540.84
2022-12-07T15:05:16.466Z,101552.03
2022-12-07T15:07:44.696Z,101547.78
2022-12-07T15:10:30.290Z,101553.00
2022-12-07T15:13:21.745Z,101533.31
2022-12-07T15:15:49.232Z,101522.22
2022-12-07T15:18:16.032Z,101528.31
2022-12-07T15:20:42.934Z,101524.91
2022-12-07T15:23:10.396Z,101525.81
2022-12-07T15:25:37.444Z,101525.00
2022-12-07T15:28:04.019Z,101525.91
2022-12-07T15:30:30.595Z,101521.66
2022-12-07T15:32:56.939Z,101530.25
2022-12-07T15:35:23.314Z,101526.81
2022-12-07T15:37:49.744Z,101519.09
2022-12-07T15:40:16.313Z,101525.97
2022-12-07T15:42:42.761Z,101523.41
2022-12-07T15:45:10.108Z,101518.31
2022-12-07T15:48:02.367Z,101503.72
2022-12-07T15:50:27.529Z,101503.72
2022-12-07T15:52:53.965Z,101498.63
2022-12-07T15:55:20.445Z,101502.06
2022-12-07T15:57:46.972Z,101503.81
2022-12-07T16:00:14.704Z,101498.69
2022-12-07T16:02:41.137Z,101490.97
2022-12-07T16:05:07.848Z,101495.25
2022-12-07T16:07:34.286Z,101493.56
2022-12-07T16:10:00.754Z,101489.31
2022-12-07T16:12:27.184Z,101484.22
2022-12-07T16:14:53.564Z,101485.97
2022-12-07T16:17:19.927Z,101480.81
2022-12-07T16:19:46.450Z,101475.69
2022-12-07T16:22:12.945Z,101472.25
2022-12-07T16:24:39.449Z,101470.53
2022-12-07T16:27:05.853Z,101469.69
2022-12-07T16:29:32.310Z,101478.31
2022-12-07T16:31:58.720Z,101472.31
2022-12-07T16:34:25.192Z,101465.44
2022-12-07T16:37:06.947Z,101468.91
2022-12-07T16:39:34.975Z,101462.88
2022-12-07T16:42:01.362Z,101462.09
2022-12-07T16:44:27.850Z,101463.81
2022-12-07T16:46:55.539Z,101456.06
2022-12-07T16:49:22.128Z,101450.06
2022-12-07T16:52:08.645Z,101444.09
2022-12-07T16:54:37.452Z,101450.09
2022-12-07T16:57:03.915Z,101449.25
2022-12-07T16:59:30.384Z,101446.69
2022-12-07T17:01:57.533Z,101444.09
2022-12-07T17:04:24.309Z,101443.31
2022-12-07T17:06:50.818Z,101445.84
2022-12-07T17:09:21.186Z,101449.31
2022-12-07T17:11:49.019Z,101445.88
2022-12-07T17:14:34.229Z,101450.22
2022-12-07T17:17:03.456Z,101446.75
2022-12-07T17:19:30.283Z,101444.16
2022-12-07T17:21:56.686Z,101443.25
2022-12-07T17:24:23.162Z,101439.84
2022-12-07T17:26:49.629Z,101442.34
2022-12-07T17:29:17.908Z,101442.31
2022-12-07T17:31:50.892Z,101445.72
2022-12-07T17:34:17.946Z,101439.69
2022-12-07T17:36:45.928Z,101438.84
2022-12-07T17:39:16.409Z,101445.69
2022-12-07T17:42:01.439Z,101440.59
2022-12-07T17:44:28.673Z,101445.75
2022-12-07T17:46:57.634Z,101442.34
2022-12-07T17:49:24.947Z,101432.91
2022-12-07T17:52:10.417Z,101433.78
2022-12-07T17:54:36.819Z,101424.41
2022-12-07T17:57:03.472Z,101405.53
2022-12-07T17:59:29.860Z,101391.81
2022-12-07T18:01:56.399Z,101392.72
2022-12-07T18:04:23.104Z,101393.56
2022-12-07T18:06:52.365Z,101394.41
2022-12-07T18:09:19.809Z,101391.84
2022-12-07T18:11:46.288Z,101383.34
2022-12-07T18:14:12.776Z,101388.50
2022-12-07T18:16:39.389Z,101386.81
2022-12-07T18:19:08.829Z,101378.28
2022-12-07T18:21:35.302Z,101385.16
2022-12-07T18:24:04.350Z,101379.13
2022-12-07T18:26:32.988Z,101381.69
2022-12-07T18:29:00.670Z,101382.56
2022-12-07T18:31:28.168Z,101380.00
2022-12-07T18:33:56.305Z,101369.72
2022-12-07T18:36:24.017Z,101374.03
2022-12-07T18:38:51.401Z,101380.88
2022-12-07T18:41:18.238Z,101384.31
2022-12-07T18:43:44.852Z,101382.59
2022-12-07T18:46:12.266Z,101379.13
2022-12-07T18:48:39.177Z,101384.28
2022-12-07T18:51:07.084Z,101377.44
2022-12-07T18:53:34.217Z,101380.03
2022-12-07T18:56:18.304Z,101385.19
2022-12-07T18:59:07.511Z,101388.66
2022-12-07T19:01:34.872Z,101393.00
2022-12-07T19:04:08.694Z,101393.03
2022-12-07T19:06:35.583Z,101390.47
2022-12-07T19:09:03.457Z,101391.38
2022-12-07T19:11:52.906Z,101387.91
2022-12-07T19:14:23.092Z,101385.31
2022-12-07T19:16:52.708Z,101384.47
2022-12-07T19:19:21.324Z,101384.44
2022-12-07T19:21:48.596Z,101385.31
2022-12-07T19:24:19.735Z,101373.34
2022-12-07T19:26:47.975Z,101372.50
2022-12-07T19:29:14.490Z,101375.09
2022-12-07T19:31:40.916Z,101379.41
2022-12-07T19:34:11.754Z,101365.69
2022-12-07T19:36:38.802Z,101368.22
2022-12-07T19:39:09.794Z,101362.28
2022-12-07T19:41:39.572Z,101371.69
2022-12-07T19:44:10.473Z,101364.81
2022-12-07T19:46:37.546Z,101358.81
2022-12-07T19:49:04.006Z,101358.84
2022-12-07T19:51:31.346Z,101352.84
2022-12-07T19:54:02.402Z,101347.69
2022-12-07T19:56:30.649Z,101341.66
2022-12-07T19:58:59.954Z,101343.38
2022-12-07T20:01:26.750Z,101337.34
2022-12-07T20:03:53.248Z,101340.75
2022-12-07T20:06:20.586Z,101339.88
2022-12-07T20:08:48.146Z,101341.63
2022-12-07T20:11:35.781Z,101338.22
2022-12-07T20:14:02.920Z,101332.25
2022-12-07T20:16:29.423Z,101321.13
2022-12-07T20:18:57.857Z,101334.84
2022-12-07T20:21:24.622Z,101322.88
2022-12-07T20:23:51.491Z,101322.03
2022-12-07T20:26:17.908Z,101316.91
2022-12-07T20:28:46.540Z,101310.94
2022-12-07T20:31:17.041Z,101307.53
2022-12-07T20:33:47.863Z,101304.94
2022-12-07T20:36:17.624Z,101299.81
2022-12-07T20:38:45.459Z,101292.13
2022-12-07T20:41:32.778Z,101290.41
2022-12-07T20:44:00.474Z,101291.25
2022-12-07T20:46:27.307Z,101281.88
2022-12-07T20:48:54.376Z,101278.44
2022-12-07T20:51:20.848Z,101285.28
2022-12-07T20:53:47.250Z,101286.19
2022-12-07T20:56:27.458Z,101286.19
2022-12-07T20:58:54.683Z,101284.53
2022-12-07T21:01:21.145Z,101286.25
2022-12-07T21:03:48.128Z,101282.00
2022-12-07T21:06:16.427Z,101287.16
2022-12-07T21:08:51.305Z,101275.16
2022-12-07T21:11:19.094Z,101277.75
2022-12-07T21:13:45.782Z,101270.06
2022-12-07T21:16:35.617Z,101266.66
2022-12-07T21:19:04.030Z,101270.13
2022-12-07T21:21:31.770Z,101265.84
2022-12-07T21:24:02.443Z,101268.41
2022-12-07T21:26:29.415Z,101258.16
2022-12-07T21:28:57.153Z,101262.41
2022-12-07T21:31:23.913Z,101259.00
2022-12-07T21:33:50.400Z,101256.44
2022-12-07T21:36:22.091Z,101256.44
2022-12-07T21:38:49.358Z,101249.56
2022-12-07T21:41:15.753Z,101250.44
2022-12-07T21:43:42.772Z,101241.84
2022-12-07T21:46:09.402Z,101239.28
2022-12-07T21:48:36.096Z,101231.56
2022-12-07T21:51:08.128Z,101241.00
2022-12-07T21:53:35.558Z,101235.84
2022-12-07T21:56:03.115Z,101229.88
2022-12-07T21:58:30.625Z,101228.97
2022-12-07T22:00:59.313Z,101235.81
2022-12-07T22:03:25.915Z,101227.25
2022-12-07T22:05:52.689Z,101227.22
2022-12-07T22:08:19.354Z,101236.63
2022-12-07T22:10:45.871Z,101227.22
2022-12-07T22:13:12.219Z,101227.19
2022-12-07T22:15:40.818Z,101226.31
2022-12-07T22:18:07.762Z,101226.34
2022-12-07T22:20:35.165Z,101222.91
2022-12-07T22:23:02.196Z,101226.31
2022-12-07T22:25:28.673Z,101224.56
2022-12-07T22:27:55.081Z,101226.25
2022-12-07T22:30:21.488Z,101229.72
2022-12-07T22:32:49.191Z,101218.59
2022-12-07T22:35:15.954Z,101220.34
2022-12-07T22:37:42.374Z,101214.31
2022-12-07T22:40:09.194Z,101211.78
2022-12-07T22:42:35.662Z,101210.09
2022-12-07T22:45:02.387Z,101210.09
2022-12-07T22:47:29.049Z,101198.97
2022-12-07T22:49:55.684Z,101203.28
2022-12-07T22:52:22.175Z,101199.84
2022-12-07T22:54:48.638Z,101187.00
2022-12-07T22:57:15.080Z,101186.16
2022-12-07T22:59:42.111Z,101175.88
2022-12-07T23:02:08.536Z,101178.44
2022-12-07T23:04:35.014Z,101182.75
2022-12-07T23:07:01.476Z,101179.31
2022-12-07T23:09:27.894Z,101173.31
2022-12-07T23:12:12.934Z,101165.66
2022-12-07T23:14:39.348Z,101171.66
2022-12-07T23:17:05.862Z,101158.03
2022-12-07T23:19:32.340Z,101159.78
2022-12-07T23:21:58.738Z,101153.81
2022-12-07T23:24:25.264Z,101158.13
2022-12-07T23:26:52.379Z,101149.59
2022-12-07T23:29:18.767Z,101140.22
2022-12-07T23:31:47.402Z,101142.84
2022-12-07T23:34:14.132Z,101143.69
2022-12-07T23:36:40.594Z,101142.78
2022-12-07T23:39:07.223Z,101144.44
2022-12-07T23:41:33.704Z,101134.97
2022-12-07T23:44:00.899Z,101132.34
2022-12-07T23:46:32.432Z,101125.44
2022-12-07T23:49:01.020Z,101111.69
2022-12-07T23:51:27.492Z,101112.53
2022-12-07T23:53:54.742Z,101118.50
2022-12-07T23:56:27.027Z,101114.19
2022-12-07T23:58:54.516Z,101109.84
